sensor_id;sensor_type;location;lat;lon;timestamp;P1;durP1;ratioP1;P2;durP2;ratioP2
41115;SDS011;26861;51.824;4.682;2023-04-15T00:01:23;1.30;;;0.80;;
41115;SDS011;26861;51.824;4.682;2023-04-15T00:03:52;0.90;;;0.57;;
41115;SDS011;26861;51.824;4.682;2023-04-15T00:06:18;1.35;;;0.57;;
41115;SDS011;26861;51.824;4.682;2023-04-15T00:08:47;0.80;;;0.55;;
41115;SDS011;26861;51.824;4.682;2023-04-15T00:11:14;1.00;;;0.40;;
41115;SDS011;26861;51.824;4.682;2023-04-15T00:13:40;0.85;;;0.55;;
41115;SDS011;26861;51.824;4.682;2023-04-15T00:16:07;1.25;;;0.80;;
41115;SDS011;26861;51.824;4.682;2023-04-15T00:18:34;0.98;;;0.70;;
41115;SDS011;26861;51.824;4.682;2023-04-15T00:20:59;1.10;;;0.55;;
41115;SDS011;26861;51.824;4.682;2023-04-15T00:23:25;1.35;;;0.63;;
41115;SDS011;26861;51.824;4.682;2023-04-15T00:25:51;0.90;;;0.80;;
41115;SDS011;26861;51.824;4.682;2023-04-15T00:28:17;1.00;;;0.50;;
41115;SDS011;26861;51.824;4.682;2023-04-15T00:30:43;0.98;;;0.50;;
41115;SDS011;26861;51.824;4.682;2023-04-15T00:33:10;0.90;;;0.65;;
41115;SDS011;26861;51.824;4.682;2023-04-15T00:35:36;2.03;;;0.70;;
41115;SDS011;26861;51.824;4.682;2023-04-15T00:38:05;0.50;;;0.38;;
41115;SDS011;26861;51.824;4.682;2023-04-15T00:40:32;1.20;;;0.60;;
41115;SDS011;26861;51.824;4.682;2023-04-15T00:42:58;1.38;;;0.55;;
41115;SDS011;26861;51.824;4.682;2023-04-15T00:45:24;1.33;;;0.77;;
41115;SDS011;26861;51.824;4.682;2023-04-15T00:47:52;1.48;;;0.88;;
41115;SDS011;26861;51.824;4.682;2023-04-15T00:50:18;0.85;;;0.55;;
41115;SDS011;26861;51.824;4.682;2023-04-15T00:52:44;0.90;;;0.40;;
41115;SDS011;26861;51.824;4.682;2023-04-15T00:55:11;1.05;;;0.70;;
41115;SDS011;26861;51.824;4.682;2023-04-15T00:57:37;0.40;;;0.40;;
41115;SDS011;26861;51.824;4.682;2023-04-15T01:00:04;0.82;;;0.60;;
41115;SDS011;26861;51.824;4.682;2023-04-15T01:02:32;2.22;;;0.77;;
41115;SDS011;26861;51.824;4.682;2023-04-15T01:04:58;1.00;;;0.50;;
41115;SDS011;26861;51.824;4.682;2023-04-15T01:07:24;1.25;;;0.70;;
41115;SDS011;26861;51.824;4.682;2023-04-15T01:09:50;0.88;;;0.70;;
41115;SDS011;26861;51.824;4.682;2023-04-15T01:12:16;1.15;;;0.50;;
41115;SDS011;26861;51.824;4.682;2023-04-15T01:14:43;1.67;;;0.70;;
41115;SDS011;26861;51.824;4.682;2023-04-15T01:17:09;1.10;;;0.55;;
41115;SDS011;26861;51.824;4.682;2023-04-15T01:19:35;1.70;;;0.80;;
41115;SDS011;26861;51.824;4.682;2023-04-15T01:22:02;1.27;;;0.60;;
41115;SDS011;26861;51.824;4.682;2023-04-15T01:24:33;1.80;;;0.80;;
41115;SDS011;26861;51.824;4.682;2023-04-15T01:27:00;1.42;;;0.70;;
41115;SDS011;26861;51.824;4.682;2023-04-15T01:29:28;1.15;;;0.30;;
41115;SDS011;26861;51.824;4.682;2023-04-15T01:31:55;1.48;;;0.60;;
41115;SDS011;26861;51.824;4.682;2023-04-15T01:34:21;0.85;;;0.40;;
41115;SDS011;26861;51.824;4.682;2023-04-15T01:36:48;0.70;;;0.55;;
41115;SDS011;26861;51.824;4.682;2023-04-15T01:39:14;1.35;;;0.52;;
41115;SDS011;26861;51.824;4.682;2023-04-15T01:41:40;1.55;;;0.75;;
41115;SDS011;26861;51.824;4.682;2023-04-15T01:44:06;1.30;;;0.50;;
41115;SDS011;26861;51.824;4.682;2023-04-15T01:46:33;0.80;;;0.65;;
41115;SDS011;26861;51.824;4.682;2023-04-15T01:49:00;2.58;;;0.77;;
41115;SDS011;26861;51.824;4.682;2023-04-15T01:51:26;2.03;;;0.52;;
41115;SDS011;26861;51.824;4.682;2023-04-15T01:53:52;1.70;;;0.65;;
41115;SDS011;26861;51.824;4.682;2023-04-15T01:56:21;0.98;;;0.60;;
41115;SDS011;26861;51.824;4.682;2023-04-15T01:58:48;1.10;;;0.60;;
41115;SDS011;26861;51.824;4.682;2023-04-15T02:01:13;1.77;;;0.80;;
41115;SDS011;26861;51.824;4.682;2023-04-15T02:03:40;0.60;;;0.50;;
41115;SDS011;26861;51.824;4.682;2023-04-15T02:06:06;1.20;;;0.50;;
41115;SDS011;26861;51.824;4.682;2023-04-15T02:08:32;1.75;;;0.85;;
41115;SDS011;26861;51.824;4.682;2023-04-15T02:10:58;0.80;;;0.52;;
41115;SDS011;26861;51.824;4.682;2023-04-15T02:13:25;0.60;;;0.50;;
41115;SDS011;26861;51.824;4.682;2023-04-15T02:15:51;1.90;;;0.60;;
41115;SDS011;26861;51.824;4.682;2023-04-15T02:18:17;1.90;;;0.70;;
41115;SDS011;26861;51.824;4.682;2023-04-15T02:20:42;0.50;;;0.40;;
41115;SDS011;26861;51.824;4.682;2023-04-15T02:23:09;0.68;;;0.50;;
41115;SDS011;26861;51.824;4.682;2023-04-15T02:25:35;1.90;;;0.68;;
41115;SDS011;26861;51.824;4.682;2023-04-15T02:28:06;1.33;;;0.70;;
41115;SDS011;26861;51.824;4.682;2023-04-15T02:30:32;2.08;;;0.50;;
41115;SDS011;26861;51.824;4.682;2023-04-15T02:32:58;0.70;;;0.60;;
41115;SDS011;26861;51.824;4.682;2023-04-15T02:35:25;1.15;;;0.40;;
41115;SDS011;26861;51.824;4.682;2023-04-15T02:37:51;1.95;;;0.70;;
41115;SDS011;26861;51.824;4.682;2023-04-15T02:40:17;0.88;;;0.57;;
41115;SDS011;26861;51.824;4.682;2023-04-15T02:42:43;0.90;;;0.50;;
41115;SDS011;26861;51.824;4.682;2023-04-15T02:45:09;0.82;;;0.60;;
41115;SDS011;26861;51.824;4.682;2023-04-15T02:47:36;1.13;;;0.50;;
41115;SDS011;26861;51.824;4.682;2023-04-15T02:50:04;1.13;;;0.70;;
41115;SDS011;26861;51.824;4.682;2023-04-15T02:52:31;1.42;;;0.80;;
41115;SDS011;26861;51.824;4.682;2023-04-15T02:54:56;1.30;;;0.70;;
41115;SDS011;26861;51.824;4.682;2023-04-15T02:57:25;0.65;;;0.40;;
41115;SDS011;26861;51.824;4.682;2023-04-15T02:59:52;1.45;;;0.73;;
41115;SDS011;26861;51.824;4.682;2023-04-15T03:02:18;0.50;;;0.50;;
41115;SDS011;26861;51.824;4.682;2023-04-15T03:04:44;1.48;;;0.40;;
41115;SDS011;26861;51.824;4.682;2023-04-15T03:07:10;0.60;;;0.40;;
41115;SDS011;26861;51.824;4.682;2023-04-15T03:09:35;1.30;;;0.75;;
41115;SDS011;26861;51.824;4.682;2023-04-15T03:12:03;0.68;;;0.43;;
41115;SDS011;26861;51.824;4.682;2023-04-15T03:14:29;0.68;;;0.60;;
41115;SDS011;26861;51.824;4.682;2023-04-15T03:16:54;2.67;;;0.80;;
41115;SDS011;26861;51.824;4.682;2023-04-15T03:19:20;0.60;;;0.43;;
41115;SDS011;26861;51.824;4.682;2023-04-15T03:21:46;2.00;;;0.70;;
41115;SDS011;26861;51.824;4.682;2023-04-15T03:24:11;1.23;;;0.50;;
41115;SDS011;26861;51.824;4.682;2023-04-15T03:26:37;1.42;;;0.55;;
41115;SDS011;26861;51.824;4.682;2023-04-15T03:29:02;0.85;;;0.60;;
41115;SDS011;26861;51.824;4.682;2023-04-15T03:31:28;0.82;;;0.47;;
41115;SDS011;26861;51.824;4.682;2023-04-15T03:33:54;0.70;;;0.40;;
41115;SDS011;26861;51.824;4.682;2023-04-15T03:36:20;1.42;;;0.50;;
41115;SDS011;26861;51.824;4.682;2023-04-15T03:38:45;1.05;;;0.55;;
41115;SDS011;26861;51.824;4.682;2023-04-15T03:41:11;2.42;;;0.63;;
41115;SDS011;26861;51.824;4.682;2023-04-15T03:43:37;1.35;;;0.50;;
41115;SDS011;26861;51.824;4.682;2023-04-15T03:46:02;0.57;;;0.45;;
41115;SDS011;26861;51.824;4.682;2023-04-15T03:48:28;0.68;;;0.68;;
41115;SDS011;26861;51.824;4.682;2023-04-15T03:50:54;1.10;;;0.50;;
41115;SDS011;26861;51.824;4.682;2023-04-15T03:53:20;0.55;;;0.30;;
41115;SDS011;26861;51.824;4.682;2023-04-15T03:55:46;1.52;;;0.73;;
41115;SDS011;26861;51.824;4.682;2023-04-15T03:58:12;0.90;;;0.40;;
41115;SDS011;26861;51.824;4.682;2023-04-15T04:00:38;0.65;;;0.45;;
41115;SDS011;26861;51.824;4.682;2023-04-15T04:03:05;1.65;;;0.60;;
41115;SDS011;26861;51.824;4.682;2023-04-15T04:05:32;0.30;;;0.30;;
41115;SDS011;26861;51.824;4.682;2023-04-15T04:08:01;0.55;;;0.43;;
41115;SDS011;26861;51.824;4.682;2023-04-15T04:10:27;2.80;;;0.85;;
41115;SDS011;26861;51.824;4.682;2023-04-15T04:12:53;1.63;;;0.55;;
41115;SDS011;26861;51.824;4.682;2023-04-15T04:15:19;1.02;;;0.50;;
41115;SDS011;26861;51.824;4.682;2023-04-15T04:17:45;0.80;;;0.60;;
41115;SDS011;26861;51.824;4.682;2023-04-15T04:20:11;0.85;;;0.40;;
41115;SDS011;26861;51.824;4.682;2023-04-15T04:22:37;1.38;;;0.60;;
41115;SDS011;26861;51.824;4.682;2023-04-15T04:25:04;0.75;;;0.40;;
41115;SDS011;26861;51.824;4.682;2023-04-15T04:27:30;0.70;;;0.40;;
41115;SDS011;26861;51.824;4.682;2023-04-15T04:29:56;1.98;;;0.60;;
41115;SDS011;26861;51.824;4.682;2023-04-15T04:32:22;0.90;;;0.55;;
41115;SDS011;26861;51.824;4.682;2023-04-15T04:34:47;1.20;;;0.75;;
41115;SDS011;26861;51.824;4.682;2023-04-15T04:37:13;2.47;;;0.40;;
41115;SDS011;26861;51.824;4.682;2023-04-15T04:39:39;0.60;;;0.40;;
41115;SDS011;26861;51.824;4.682;2023-04-15T04:42:05;0.75;;;0.50;;
41115;SDS011;26861;51.824;4.682;2023-04-15T04:44:31;1.10;;;0.50;;
41115;SDS011;26861;51.824;4.682;2023-04-15T04:46:57;0.55;;;0.50;;
41115;SDS011;26861;51.824;4.682;2023-04-15T04:49:23;1.92;;;0.70;;
41115;SDS011;26861;51.824;4.682;2023-04-15T04:51:50;0.50;;;0.40;;
41115;SDS011;26861;51.824;4.682;2023-04-15T04:54:16;1.20;;;0.30;;
41115;SDS011;26861;51.824;4.682;2023-04-15T04:56:42;2.05;;;0.80;;
41115;SDS011;26861;51.824;4.682;2023-04-15T04:59:07;1.23;;;0.50;;
41115;SDS011;26861;51.824;4.682;2023-04-15T05:01:33;0.70;;;0.40;;
41115;SDS011;26861;51.824;4.682;2023-04-15T05:03:59;0.73;;;0.40;;
41115;SDS011;26861;51.824;4.682;2023-04-15T05:06:25;0.82;;;0.73;;
41115;SDS011;26861;51.824;4.682;2023-04-15T05:08:51;0.60;;;0.40;;
41115;SDS011;26861;51.824;4.682;2023-04-15T05:11:17;0.50;;;0.40;;
41115;SDS011;26861;51.824;4.682;2023-04-15T05:13:43;0.45;;;0.45;;
41115;SDS011;26861;51.824;4.682;2023-04-15T05:16:09;1.63;;;0.52;;
41115;SDS011;26861;51.824;4.682;2023-04-15T05:18:35;0.65;;;0.50;;
41115;SDS011;26861;51.824;4.682;2023-04-15T05:21:02;1.15;;;0.50;;
41115;SDS011;26861;51.824;4.682;2023-04-15T05:23:28;0.43;;;0.35;;
41115;SDS011;26861;51.824;4.682;2023-04-15T05:25:54;0.70;;;0.60;;
41115;SDS011;26861;51.824;4.682;2023-04-15T05:28:20;0.90;;;0.40;;
41115;SDS011;26861;51.824;4.682;2023-04-15T05:30:46;1.42;;;0.40;;
41115;SDS011;26861;51.824;4.682;2023-04-15T05:33:12;1.60;;;0.70;;
41115;SDS011;26861;51.824;4.682;2023-04-15T05:35:38;0.93;;;0.47;;
41115;SDS011;26861;51.824;4.682;2023-04-15T05:38:04;0.60;;;0.60;;
41115;SDS011;26861;51.824;4.682;2023-04-15T05:40:30;2.47;;;0.30;;
41115;SDS011;26861;51.824;4.682;2023-04-15T05:42:56;0.93;;;0.40;;
41115;SDS011;26861;51.824;4.682;2023-04-15T05:45:22;1.70;;;0.55;;
41115;SDS011;26861;51.824;4.682;2023-04-15T05:47:48;1.48;;;0.65;;
41115;SDS011;26861;51.824;4.682;2023-04-15T05:50:18;1.40;;;0.40;;
41115;SDS011;26861;51.824;4.682;2023-04-15T05:52:45;2.97;;;0.60;;
41115;SDS011;26861;51.824;4.682;2023-04-15T05:55:11;2.35;;;0.52;;
41115;SDS011;26861;51.824;4.682;2023-04-15T05:57:38;0.77;;;0.40;;
41115;SDS011;26861;51.824;4.682;2023-04-15T06:00:05;1.58;;;0.70;;
41115;SDS011;26861;51.824;4.682;2023-04-15T06:02:32;0.40;;;0.40;;
41115;SDS011;26861;51.824;4.682;2023-04-15T06:04:58;2.05;;;0.82;;
41115;SDS011;26861;51.824;4.682;2023-04-15T06:07:25;2.90;;;0.75;;
41115;SDS011;26861;51.824;4.682;2023-04-15T06:09:51;1.13;;;0.40;;
41115;SDS011;26861;51.824;4.682;2023-04-15T06:12:17;0.95;;;0.60;;
41115;SDS011;26861;51.824;4.682;2023-04-15T06:14:43;1.23;;;0.40;;
41115;SDS011;26861;51.824;4.682;2023-04-15T06:17:09;1.35;;;0.73;;
41115;SDS011;26861;51.824;4.682;2023-04-15T06:19:35;0.75;;;0.50;;
41115;SDS011;26861;51.824;4.682;2023-04-15T06:22:02;0.90;;;0.57;;
41115;SDS011;26861;51.824;4.682;2023-04-15T06:24:28;1.13;;;0.38;;
41115;SDS011;26861;51.824;4.682;2023-04-15T06:26:58;1.55;;;0.60;;
41115;SDS011;26861;51.824;4.682;2023-04-15T06:29:24;0.75;;;0.35;;
41115;SDS011;26861;51.824;4.682;2023-04-15T06:31:50;1.58;;;0.70;;
41115;SDS011;26861;51.824;4.682;2023-04-15T06:34:16;0.90;;;0.68;;
41115;SDS011;26861;51.824;4.682;2023-04-15T06:36:41;0.52;;;0.52;;
41115;SDS011;26861;51.824;4.682;2023-04-15T06:39:07;1.52;;;0.60;;
41115;SDS011;26861;51.824;4.682;2023-04-15T06:41:33;0.70;;;0.60;;
41115;SDS011;26861;51.824;4.682;2023-04-15T06:43:59;1.02;;;0.60;;
41115;SDS011;26861;51.824;4.682;2023-04-15T06:46:25;0.90;;;0.50;;
41115;SDS011;26861;51.824;4.682;2023-04-15T06:48:50;1.42;;;0.60;;
41115;SDS011;26861;51.824;4.682;2023-04-15T06:51:16;1.20;;;0.50;;
41115;SDS011;26861;51.824;4.682;2023-04-15T06:53:42;0.85;;;0.63;;
41115;SDS011;26861;51.824;4.682;2023-04-15T06:56:08;1.05;;;0.50;;
41115;SDS011;26861;51.824;4.682;2023-04-15T06:58:35;1.85;;;0.60;;
41115;SDS011;26861;51.824;4.682;2023-04-15T07:01:01;1.40;;;0.60;;
41115;SDS011;26861;51.824;4.682;2023-04-15T07:03:27;0.50;;;0.45;;
41115;SDS011;26861;51.824;4.682;2023-04-15T07:05:53;0.75;;;0.47;;
41115;SDS011;26861;51.824;4.682;2023-04-15T07:08:19;1.55;;;0.50;;
41115;SDS011;26861;51.824;4.682;2023-04-15T07:10:45;0.63;;;0.43;;
41115;SDS011;26861;51.824;4.682;2023-04-15T07:13:11;1.75;;;0.47;;
41115;SDS011;26861;51.824;4.682;2023-04-15T07:15:37;1.67;;;0.82;;
41115;SDS011;26861;51.824;4.682;2023-04-15T07:18:02;3.10;;;0.60;;
41115;SDS011;26861;51.824;4.682;2023-04-15T07:20:28;1.20;;;0.60;;
41115;SDS011;26861;51.824;4.682;2023-04-15T07:22:54;0.70;;;0.68;;
41115;SDS011;26861;51.824;4.682;2023-04-15T07:25:20;1.40;;;0.70;;
41115;SDS011;26861;51.824;4.682;2023-04-15T07:27:46;1.25;;;0.60;;
41115;SDS011;26861;51.824;4.682;2023-04-15T07:30:12;0.73;;;0.40;;
41115;SDS011;26861;51.824;4.682;2023-04-15T07:32:38;3.03;;;0.52;;
41115;SDS011;26861;51.824;4.682;2023-04-15T07:35:04;0.65;;;0.40;;
41115;SDS011;26861;51.824;4.682;2023-04-15T07:37:29;0.98;;;0.43;;
41115;SDS011;26861;51.824;4.682;2023-04-15T07:39:56;0.70;;;0.70;;
41115;SDS011;26861;51.824;4.682;2023-04-15T07:42:22;0.88;;;0.50;;
41115;SDS011;26861;51.824;4.682;2023-04-15T07:44:48;2.70;;;0.65;;
41115;SDS011;26861;51.824;4.682;2023-04-15T07:47:14;1.52;;;0.60;;
41115;SDS011;26861;51.824;4.682;2023-04-15T07:49:40;1.30;;;0.77;;
41115;SDS011;26861;51.824;4.682;2023-04-15T07:52:07;2.45;;;0.55;;
41115;SDS011;26861;51.824;4.682;2023-04-15T07:54:32;1.00;;;0.47;;
41115;SDS011;26861;51.824;4.682;2023-04-15T07:56:58;1.15;;;0.68;;
41115;SDS011;26861;51.824;4.682;2023-04-15T07:59:23;0.70;;;0.50;;
41115;SDS011;26861;51.824;4.682;2023-04-15T08:01:49;2.88;;;0.65;;
41115;SDS011;26861;51.824;4.682;2023-04-15T08:04:15;1.17;;;0.52;;
41115;SDS011;26861;51.824;4.682;2023-04-15T08:06:41;0.80;;;0.50;;
41115;SDS011;26861;51.824;4.682;2023-04-15T08:09:07;1.80;;;0.50;;
41115;SDS011;26861;51.824;4.682;2023-04-15T08:11:32;2.03;;;0.90;;
41115;SDS011;26861;51.824;4.682;2023-04-15T08:13:58;0.60;;;0.60;;
41115;SDS011;26861;51.824;4.682;2023-04-15T08:16:25;2.25;;;1.13;;
41115;SDS011;26861;51.824;4.682;2023-04-15T08:18:54;1.40;;;0.82;;
41115;SDS011;26861;51.824;4.682;2023-04-15T08:21:21;2.88;;;1.20;;
41115;SDS011;26861;51.824;4.682;2023-04-15T08:23:49;2.83;;;1.50;;
41115;SDS011;26861;51.824;4.682;2023-04-15T08:26:16;1.75;;;1.42;;
41115;SDS011;26861;51.824;4.682;2023-04-15T08:28:43;2.67;;;1.58;;
41115;SDS011;26861;51.824;4.682;2023-04-15T08:31:10;1.95;;;1.20;;
41115;SDS011;26861;51.824;4.682;2023-04-15T08:33:38;4.13;;;1.40;;
41115;SDS011;26861;51.824;4.682;2023-04-15T08:36:04;1.63;;;1.10;;
41115;SDS011;26861;51.824;4.682;2023-04-15T08:38:30;2.42;;;0.80;;
41115;SDS011;26861;51.824;4.682;2023-04-15T08:40:57;2.30;;;0.75;;
41115;SDS011;26861;51.824;4.682;2023-04-15T08:43:28;0.95;;;0.52;;
41115;SDS011;26861;51.824;4.682;2023-04-15T08:45:58;2.22;;;1.02;;
41115;SDS011;26861;51.824;4.682;2023-04-15T08:48:29;1.42;;;1.02;;
41115;SDS011;26861;51.824;4.682;2023-04-15T08:50:57;1.80;;;1.52;;
41115;SDS011;26861;51.824;4.682;2023-04-15T08:53:25;2.58;;;1.27;;
41115;SDS011;26861;51.824;4.682;2023-04-15T08:55:53;3.00;;;1.45;;
41115;SDS011;26861;51.824;4.682;2023-04-15T08:58:20;1.48;;;1.20;;
41115;SDS011;26861;51.824;4.682;2023-04-15T09:00:47;3.40;;;1.90;;
41115;SDS011;26861;51.824;4.682;2023-04-15T09:03:13;2.03;;;1.40;;
41115;SDS011;26861;51.824;4.682;2023-04-15T09:05:39;2.28;;;1.00;;
41115;SDS011;26861;51.824;4.682;2023-04-15T09:08:05;3.28;;;1.83;;
41115;SDS011;26861;51.824;4.682;2023-04-15T09:10:32;2.05;;;1.70;;
41115;SDS011;26861;51.824;4.682;2023-04-15T09:13:00;2.33;;;1.60;;
41115;SDS011;26861;51.824;4.682;2023-04-15T09:15:27;2.17;;;0.93;;
41115;SDS011;26861;51.824;4.682;2023-04-15T09:17:54;2.45;;;1.50;;
41115;SDS011;26861;51.824;4.682;2023-04-15T09:20:21;0.90;;;0.90;;
41115;SDS011;26861;51.824;4.682;2023-04-15T09:22:48;5.50;;;2.00;;
41115;SDS011;26861;51.824;4.682;2023-04-15T09:25:24;1.67;;;0.60;;
41115;SDS011;26861;51.824;4.682;2023-04-15T09:27:57;2.25;;;1.50;;
41115;SDS011;26861;51.824;4.682;2023-04-15T09:30:24;1.77;;;1.42;;
41115;SDS011;26861;51.824;4.682;2023-04-15T09:32:51;1.80;;;1.70;;
41115;SDS011;26861;51.824;4.682;2023-04-15T09:35:21;2.45;;;1.35;;
41115;SDS011;26861;51.824;4.682;2023-04-15T09:40:17;2.28;;;1.08;;
41115;SDS011;26861;51.824;4.682;2023-04-15T09:43:16;2.67;;;1.45;;
41115;SDS011;26861;51.824;4.682;2023-04-15T09:45:49;1.95;;;0.80;;
41115;SDS011;26861;51.824;4.682;2023-04-15T09:48:17;2.25;;;1.13;;
41115;SDS011;26861;51.824;4.682;2023-04-15T09:50:51;1.65;;;0.93;;
41115;SDS011;26861;51.824;4.682;2023-04-15T09:53:22;2.63;;;1.27;;
41115;SDS011;26861;51.824;4.682;2023-04-15T09:55:50;2.60;;;0.80;;
41115;SDS011;26861;51.824;4.682;2023-04-15T09:58:25;1.52;;;1.00;;
41115;SDS011;26861;51.824;4.682;2023-04-15T10:00:53;1.80;;;1.10;;
41115;SDS011;26861;51.824;4.682;2023-04-15T10:03:30;2.97;;;0.90;;
41115;SDS011;26861;51.824;4.682;2023-04-15T10:05:58;3.10;;;1.50;;
41115;SDS011;26861;51.824;4.682;2023-04-15T10:08:28;4.25;;;1.20;;
41115;SDS011;26861;51.824;4.682;2023-04-15T10:10:56;5.15;;;1.20;;
41115;SDS011;26861;51.824;4.682;2023-04-15T10:13:23;1.08;;;0.90;;
41115;SDS011;26861;51.824;4.682;2023-04-15T10:15:55;2.17;;;1.00;;
41115;SDS011;26861;51.824;4.682;2023-04-15T10:18:24;2.47;;;0.88;;
41115;SDS011;26861;51.824;4.682;2023-04-15T10:20:51;1.67;;;0.80;;
41115;SDS011;26861;51.824;4.682;2023-04-15T10:23:18;2.25;;;1.25;;
41115;SDS011;26861;51.824;4.682;2023-04-15T10:25:45;2.95;;;1.20;;
41115;SDS011;26861;51.824;4.682;2023-04-15T10:28:13;1.75;;;0.70;;
41115;SDS011;26861;51.824;4.682;2023-04-15T10:30:40;1.83;;;0.75;;
41115;SDS011;26861;51.824;4.682;2023-04-15T10:33:07;3.45;;;1.38;;
41115;SDS011;26861;51.824;4.682;2023-04-15T10:35:35;1.08;;;0.80;;
41115;SDS011;26861;51.824;4.682;2023-04-15T10:38:01;2.15;;;0.90;;
41115;SDS011;26861;51.824;4.682;2023-04-15T10:40:30;3.55;;;0.90;;
41115;SDS011;26861;51.824;4.682;2023-04-15T10:43:00;1.10;;;0.70;;
41115;SDS011;26861;51.824;4.682;2023-04-15T10:45:27;2.67;;;0.70;;
41115;SDS011;26861;51.824;4.682;2023-04-15T10:47:57;1.38;;;0.88;;
41115;SDS011;26861;51.824;4.682;2023-04-15T10:50:29;2.65;;;1.20;;
41115;SDS011;26861;51.824;4.682;2023-04-15T10:52:55;1.65;;;0.95;;
41115;SDS011;26861;51.824;4.682;2023-04-15T10:55:22;1.75;;;0.80;;
41115;SDS011;26861;51.824;4.682;2023-04-15T10:57:53;2.55;;;0.98;;
41115;SDS011;26861;51.824;4.682;2023-04-15T11:00:27;3.03;;;0.93;;
41115;SDS011;26861;51.824;4.682;2023-04-15T11:02:55;3.70;;;1.35;;
41115;SDS011;26861;51.824;4.682;2023-04-15T11:05:22;3.65;;;1.13;;
41115;SDS011;26861;51.824;4.682;2023-04-15T11:08:03;2.15;;;1.30;;
41115;SDS011;26861;51.824;4.682;2023-04-15T11:12:58;1.92;;;0.70;;
41115;SDS011;26861;51.824;4.682;2023-04-15T11:15:39;1.10;;;0.52;;
41115;SDS011;26861;51.824;4.682;2023-04-15T11:20:36;2.50;;;0.55;;
41115;SDS011;26861;51.824;4.682;2023-04-15T11:23:03;1.73;;;0.60;;
41115;SDS011;26861;51.824;4.682;2023-04-15T11:25:31;0.85;;;0.60;;
41115;SDS011;26861;51.824;4.682;2023-04-15T11:27:58;1.30;;;0.68;;
41115;SDS011;26861;51.824;4.682;2023-04-15T11:30:26;0.80;;;0.60;;
41115;SDS011;26861;51.824;4.682;2023-04-15T11:32:55;0.40;;;0.40;;
41115;SDS011;26861;51.824;4.682;2023-04-15T11:35:23;1.13;;;0.70;;
41115;SDS011;26861;51.824;4.682;2023-04-15T11:37:49;1.17;;;0.93;;
41115;SDS011;26861;51.824;4.682;2023-04-15T11:40:15;2.53;;;0.65;;
41115;SDS011;26861;51.824;4.682;2023-04-15T11:42:46;1.52;;;0.60;;
41115;SDS011;26861;51.824;4.682;2023-04-15T11:45:51;1.90;;;0.90;;
41115;SDS011;26861;51.824;4.682;2023-04-15T11:48:19;1.45;;;0.90;;
41115;SDS011;26861;51.824;4.682;2023-04-15T11:50:51;2.47;;;0.80;;
41115;SDS011;26861;51.824;4.682;2023-04-15T11:53:18;0.90;;;0.80;;
41115;SDS011;26861;51.824;4.682;2023-04-15T11:55:48;2.25;;;0.93;;
41115;SDS011;26861;51.824;4.682;2023-04-15T12:00:44;1.98;;;1.00;;
41115;SDS011;26861;51.824;4.682;2023-04-15T12:11:17;2.30;;;0.40;;
41115;SDS011;26861;51.824;4.682;2023-04-15T12:13:47;1.10;;;0.55;;
41115;SDS011;26861;51.824;4.682;2023-04-15T12:16:17;0.90;;;0.70;;
41115;SDS011;26861;51.824;4.682;2023-04-15T12:18:53;3.55;;;0.85;;
41115;SDS011;26861;51.824;4.682;2023-04-15T12:21:20;0.57;;;0.57;;
41115;SDS011;26861;51.824;4.682;2023-04-15T12:23:50;2.67;;;0.60;;
41115;SDS011;26861;51.824;4.682;2023-04-15T12:26:24;1.27;;;0.50;;
41115;SDS011;26861;51.824;4.682;2023-04-15T12:28:53;1.40;;;0.85;;
41115;SDS011;26861;51.824;4.682;2023-04-15T12:31:20;1.30;;;0.60;;
41115;SDS011;26861;51.824;4.682;2023-04-15T12:33:48;0.82;;;0.77;;
41115;SDS011;26861;51.824;4.682;2023-04-15T12:36:14;0.50;;;0.50;;
41115;SDS011;26861;51.824;4.682;2023-04-15T12:38:40;0.47;;;0.40;;
41115;SDS011;26861;51.824;4.682;2023-04-15T12:41:06;0.50;;;0.30;;
41115;SDS011;26861;51.824;4.682;2023-04-15T12:43:33;0.95;;;0.30;;
41115;SDS011;26861;51.824;4.682;2023-04-15T12:45:59;0.95;;;0.30;;
41115;SDS011;26861;51.824;4.682;2023-04-15T12:48:25;0.50;;;0.30;;
41115;SDS011;26861;51.824;4.682;2023-04-15T12:50:51;0.30;;;0.20;;
41115;SDS011;26861;51.824;4.682;2023-04-15T12:53:17;0.90;;;0.32;;
41115;SDS011;26861;51.824;4.682;2023-04-15T12:55:43;1.13;;;0.30;;
41115;SDS011;26861;51.824;4.682;2023-04-15T12:58:09;2.17;;;0.82;;
41115;SDS011;26861;51.824;4.682;2023-04-15T13:00:36;2.08;;;1.05;;
41115;SDS011;26861;51.824;4.682;2023-04-15T13:03:02;0.95;;;0.32;;
41115;SDS011;26861;51.824;4.682;2023-04-15T13:05:28;0.60;;;0.40;;
41115;SDS011;26861;51.824;4.682;2023-04-15T13:07:54;0.63;;;0.40;;
41115;SDS011;26861;51.824;4.682;2023-04-15T13:10:20;0.73;;;0.40;;
41115;SDS011;26861;51.824;4.682;2023-04-15T13:12:50;1.33;;;0.50;;
41115;SDS011;26861;51.824;4.682;2023-04-15T13:15:18;2.25;;;0.68;;
41115;SDS011;26861;51.824;4.682;2023-04-15T13:17:46;0.75;;;0.40;;
41115;SDS011;26861;51.824;4.682;2023-04-15T13:20:13;0.88;;;0.60;;
41115;SDS011;26861;51.824;4.682;2023-04-15T13:22:39;1.95;;;0.40;;
41115;SDS011;26861;51.824;4.682;2023-04-15T13:25:06;1.33;;;0.45;;
41115;SDS011;26861;51.824;4.682;2023-04-15T13:27:32;0.82;;;0.47;;
41115;SDS011;26861;51.824;4.682;2023-04-15T13:29:58;0.98;;;0.60;;
41115;SDS011;26861;51.824;4.682;2023-04-15T13:32:24;1.73;;;0.60;;
41115;SDS011;26861;51.824;4.682;2023-04-15T13:34:49;0.63;;;0.40;;
41115;SDS011;26861;51.824;4.682;2023-04-15T13:37:15;0.47;;;0.40;;
41115;SDS011;26861;51.824;4.682;2023-04-15T13:39:41;2.67;;;0.50;;
41115;SDS011;26861;51.824;4.682;2023-04-15T13:42:06;1.90;;;0.60;;
41115;SDS011;26861;51.824;4.682;2023-04-15T13:44:32;2.38;;;0.30;;
41115;SDS011;26861;51.824;4.682;2023-04-15T13:46:58;1.08;;;0.38;;
41115;SDS011;26861;51.824;4.682;2023-04-15T13:49:24;1.52;;;0.45;;
41115;SDS011;26861;51.824;4.682;2023-04-15T13:51:50;0.85;;;0.40;;
41115;SDS011;26861;51.824;4.682;2023-04-15T13:54:16;1.08;;;0.50;;
41115;SDS011;26861;51.824;4.682;2023-04-15T13:56:42;1.02;;;0.40;;
41115;SDS011;26861;51.824;4.682;2023-04-15T13:59:07;1.42;;;0.80;;
41115;SDS011;26861;51.824;4.682;2023-04-15T14:01:33;0.85;;;0.30;;
41115;SDS011;26861;51.824;4.682;2023-04-15T14:03:59;0.40;;;0.40;;
41115;SDS011;26861;51.824;4.682;2023-04-15T14:06:26;1.52;;;0.40;;
41115;SDS011;26861;51.824;4.682;2023-04-15T14:08:53;0.98;;;0.32;;
41115;SDS011;26861;51.824;4.682;2023-04-15T14:11:19;0.70;;;0.30;;
41115;SDS011;26861;51.824;4.682;2023-04-15T14:13:45;0.60;;;0.50;;
41115;SDS011;26861;51.824;4.682;2023-04-15T14:16:11;2.50;;;0.60;;
41115;SDS011;26861;51.824;4.682;2023-04-15T14:18:38;1.75;;;0.50;;
41115;SDS011;26861;51.824;4.682;2023-04-15T14:21:04;1.55;;;0.40;;
41115;SDS011;26861;51.824;4.682;2023-04-15T14:23:31;2.10;;;0.52;;
41115;SDS011;26861;51.824;4.682;2023-04-15T14:25:57;0.85;;;0.50;;
41115;SDS011;26861;51.824;4.682;2023-04-15T14:28:23;0.82;;;0.40;;
41115;SDS011;26861;51.824;4.682;2023-04-15T14:30:49;0.90;;;0.43;;
41115;SDS011;26861;51.824;4.682;2023-04-15T14:33:16;1.35;;;0.40;;
41115;SDS011;26861;51.824;4.682;2023-04-15T14:35:42;0.55;;;0.40;;
41115;SDS011;26861;51.824;4.682;2023-04-15T14:38:08;1.65;;;0.60;;
41115;SDS011;26861;51.824;4.682;2023-04-15T14:40:35;0.98;;;0.47;;
41115;SDS011;26861;51.824;4.682;2023-04-15T14:43:01;1.92;;;0.47;;
41115;SDS011;26861;51.824;4.682;2023-04-15T14:45:28;1.00;;;0.50;;
41115;SDS011;26861;51.824;4.682;2023-04-15T14:47:55;1.83;;;0.50;;
41115;SDS011;26861;51.824;4.682;2023-04-15T14:50:21;1.38;;;0.40;;
41115;SDS011;26861;51.824;4.682;2023-04-15T14:52:47;0.98;;;0.50;;
41115;SDS011;26861;51.824;4.682;2023-04-15T14:55:13;2.03;;;0.38;;
41115;SDS011;26861;51.824;4.682;2023-04-15T14:57:40;1.98;;;0.50;;
41115;SDS011;26861;51.824;4.682;2023-04-15T15:00:07;0.32;;;0.30;;
41115;SDS011;26861;51.824;4.682;2023-04-15T15:02:34;1.80;;;0.50;;
41115;SDS011;26861;51.824;4.682;2023-04-15T15:05:01;1.20;;;0.40;;